sensor_id;sensor_type;location;lat;lon;timestamp;P1;P2;P0
64631;PMS5003;58358;50.936;0.246;2024-03-06T00:00:43;40;35;
64631;PMS5003;58358;50.936;0.246;2024-03-06T00:03:09;30;29;
64631;PMS5003;58358;50.936;0.246;2024-03-06T00:05:35;40;39;
64631;PMS5003;58358;50.936;0.246;2024-03-06T00:08:00;36;35;
64631;PMS5003;58358;50.936;0.246;2024-03-06T00:10:25;41;35;
64631;PMS5003;58358;50.936;0.246;2024-03-06T00:12:51;39;38;
64631;PMS5003;58358;50.936;0.246;2024-03-06T00:15:17;36;36;
64631;PMS5003;58358;50.936;0.246;2024-03-06T00:17:42;45;45;
64631;PMS5003;58358;50.936;0.246;2024-03-06T00:20:09;36;34;
64631;PMS5003;58358;50.936;0.246;2024-03-06T00:22:34;41;37;
64631;PMS5003;58358;50.936;0.246;2024-03-06T00:24:59;36;33;
64631;PMS5003;58358;50.936;0.246;2024-03-06T00:27:24;35;32;
64631;PMS5003;58358;50.936;0.246;2024-03-06T00:29:50;41;37;
64631;PMS5003;58358;50.936;0.246;2024-03-06T00:32:15;39;37;
64631;PMS5003;58358;50.936;0.246;2024-03-06T00:34:41;39;37;
64631;PMS5003;58358;50.936;0.246;2024-03-06T00:37:06;47;44;
64631;PMS5003;58358;50.936;0.246;2024-03-06T00:39:32;36;35;
64631;PMS5003;58358;50.936;0.246;2024-03-06T00:41:57;36;34;
64631;PMS5003;58358;50.936;0.246;2024-03-06T00:44:23;42;38;
64631;PMS5003;58358;50.936;0.246;2024-03-06T00:46:48;49;42;
64631;PMS5003;58358;50.936;0.246;2024-03-06T00:49:14;36;36;
64631;PMS5003;58358;50.936;0.246;2024-03-06T00:51:40;38;38;
64631;PMS5003;58358;50.936;0.246;2024-03-06T00:54:05;38;34;
64631;PMS5003;58358;50.936;0.246;2024-03-06T00:56:30;37;37;
64631;PMS5003;58358;50.936;0.246;2024-03-06T00:58:55;33;32;
64631;PMS5003;58358;50.936;0.246;2024-03-06T01:01:20;37;33;
64631;PMS5003;58358;50.936;0.246;2024-03-06T01:03:46;39;35;
64631;PMS5003;58358;50.936;0.246;2024-03-06T01:06:11;35;32;
64631;PMS5003;58358;50.936;0.246;2024-03-06T01:08:36;31;28;
64631;PMS5003;58358;50.936;0.246;2024-03-06T01:11:02;33;29;
64631;PMS5003;58358;50.936;0.246;2024-03-06T01:13:28;33;27;
64631;PMS5003;58358;50.936;0.246;2024-03-06T01:15:53;38;35;
64631;PMS5003;58358;50.936;0.246;2024-03-06T01:18:19;34;33;
64631;PMS5003;58358;50.936;0.246;2024-03-06T01:20:44;33;29;
64631;PMS5003;58358;50.936;0.246;2024-03-06T01:23:09;35;30;
64631;PMS5003;58358;50.936;0.246;2024-03-06T01:25:35;34;33;
64631;PMS5003;58358;50.936;0.246;2024-03-06T01:28:01;32;32;
64631;PMS5003;58358;50.936;0.246;2024-03-06T01:30:26;35;32;
64631;PMS5003;58358;50.936;0.246;2024-03-06T01:32:51;37;37;
64631;PMS5003;58358;50.936;0.246;2024-03-06T01:35:17;41;36;
64631;PMS5003;58358;50.936;0.246;2024-03-06T01:37:42;32;26;
64631;PMS5003;58358;50.936;0.246;2024-03-06T01:40:08;31;29;
64631;PMS5003;58358;50.936;0.246;2024-03-06T01:42:33;35;32;
64631;PMS5003;58358;50.936;0.246;2024-03-06T01:44:58;31;30;
64631;PMS5003;58358;50.936;0.246;2024-03-06T01:47:23;31;31;
64631;PMS5003;58358;50.936;0.246;2024-03-06T01:49:49;35;30;
64631;PMS5003;58358;50.936;0.246;2024-03-06T01:52:14;33;32;
64631;PMS5003;58358;50.936;0.246;2024-03-06T01:54:39;36;36;
64631;PMS5003;58358;50.936;0.246;2024-03-06T01:57:05;39;36;
64631;PMS5003;58358;50.936;0.246;2024-03-06T01:59:30;42;36;
64631;PMS5003;58358;50.936;0.246;2024-03-06T02:01:55;45;39;
64631;PMS5003;58358;50.936;0.246;2024-03-06T02:04:21;40;37;
64631;PMS5003;58358;50.936;0.246;2024-03-06T02:06:47;43;37;
64631;PMS5003;58358;50.936;0.246;2024-03-06T02:09:11;41;34;
64631;PMS5003;58358;50.936;0.246;2024-03-06T02:11:37;42;38;
64631;PMS5003;58358;50.936;0.246;2024-03-06T02:14:02;43;38;
64631;PMS5003;58358;50.936;0.246;2024-03-06T02:16:28;44;40;
64631;PMS5003;58358;50.936;0.246;2024-03-06T02:18:53;37;37;
64631;PMS5003;58358;50.936;0.246;2024-03-06T02:21:19;47;42;
64631;PMS5003;58358;50.936;0.246;2024-03-06T02:23:44;35;35;
64631;PMS5003;58358;50.936;0.246;2024-03-06T02:26:10;42;40;
64631;PMS5003;58358;50.936;0.246;2024-03-06T02:28:34;42;38;
64631;PMS5003;58358;50.936;0.246;2024-03-06T02:31:00;44;39;
64631;PMS5003;58358;50.936;0.246;2024-03-06T02:33:25;42;40;
64631;PMS5003;58358;50.936;0.246;2024-03-06T02:35:50;40;39;
64631;PMS5003;58358;50.936;0.246;2024-03-06T02:38:16;44;34;
64631;PMS5003;58358;50.936;0.246;2024-03-06T02:40:42;40;36;
64631;PMS5003;58358;50.936;0.246;2024-03-06T02:43:06;40;36;
64631;PMS5003;58358;50.936;0.246;2024-03-06T02:45:31;40;34;
64631;PMS5003;58358;50.936;0.246;2024-03-06T02:47:57;46;42;
64631;PMS5003;58358;50.936;0.246;2024-03-06T02:50:22;49;41;
64631;PMS5003;58358;50.936;0.246;2024-03-06T02:52:48;48;46;
64631;PMS5003;58358;50.936;0.246;2024-03-06T02:55:13;45;41;
64631;PMS5003;58358;50.936;0.246;2024-03-06T02:57:39;48;44;
64631;PMS5003;58358;50.936;0.246;2024-03-06T03:00:05;38;37;
64631;PMS5003;58358;50.936;0.246;2024-03-06T03:02:30;43;38;
64631;PMS5003;58358;50.936;0.246;2024-03-06T03:04:56;42;38;
64631;PMS5003;58358;50.936;0.246;2024-03-06T03:07:21;38;37;
64631;PMS5003;58358;50.936;0.246;2024-03-06T03:09:47;35;32;
64631;PMS5003;58358;50.936;0.246;2024-03-06T03:12:12;42;40;
64631;PMS5003;58358;50.936;0.246;2024-03-06T03:14:37;39;33;
64631;PMS5003;58358;50.936;0.246;2024-03-06T03:17:02;31;30;
64631;PMS5003;58358;50.936;0.246;2024-03-06T03:19:28;37;37;
64631;PMS5003;58358;50.936;0.246;2024-03-06T03:21:53;41;35;
64631;PMS5003;58358;50.936;0.246;2024-03-06T03:24:19;40;34;
64631;PMS5003;58358;50.936;0.246;2024-03-06T03:26:44;37;35;
64631;PMS5003;58358;50.936;0.246;2024-03-06T03:29:09;45;42;
64631;PMS5003;58358;50.936;0.246;2024-03-06T03:31:34;37;34;
64631;PMS5003;58358;50.936;0.246;2024-03-06T03:34:00;38;35;
64631;PMS5003;58358;50.936;0.246;2024-03-06T03:36:25;38;36;
64631;PMS5003;58358;50.936;0.246;2024-03-06T03:38:50;33;33;
64631;PMS5003;58358;50.936;0.246;2024-03-06T03:41:15;38;32;
64631;PMS5003;58358;50.936;0.246;2024-03-06T03:43:41;36;36;
64631;PMS5003;58358;50.936;0.246;2024-03-06T03:46:07;41;41;
64631;PMS5003;58358;50.936;0.246;2024-03-06T03:48:32;36;36;
64631;PMS5003;58358;50.936;0.246;2024-03-06T03:50:58;45;43;
64631;PMS5003;58358;50.936;0.246;2024-03-06T03:53:23;36;34;
64631;PMS5003;58358;50.936;0.246;2024-03-06T03:55:48;34;33;
64631;PMS5003;58358;50.936;0.246;2024-03-06T03:58:14;48;41;
64631;PMS5003;58358;50.936;0.246;2024-03-06T04:00:40;41;38;
64631;PMS5003;58358;50.936;0.246;2024-03-06T04:03:05;31;29;
64631;PMS5003;58358;50.936;0.246;2024-03-06T04:05:31;29;28;
64631;PMS5003;58358;50.936;0.246;2024-03-06T04:07:56;36;32;
64631;PMS5003;58358;50.936;0.246;2024-03-06T04:10:21;43;39;
64631;PMS5003;58358;50.936;0.246;2024-03-06T04:12:47;40;34;
64631;PMS5003;58358;50.936;0.246;2024-03-06T04:15:13;38;36;
64631;PMS5003;58358;50.936;0.246;2024-03-06T04:17:38;43;39;
64631;PMS5003;58358;50.936;0.246;2024-03-06T04:20:03;33;31;
64631;PMS5003;58358;50.936;0.246;2024-03-06T04:22:28;39;33;
64631;PMS5003;58358;50.936;0.246;2024-03-06T04:24:54;39;37;
64631;PMS5003;58358;50.936;0.246;2024-03-06T04:27:19;33;32;
64631;PMS5003;58358;50.936;0.246;2024-03-06T04:29:45;32;29;
64631;PMS5003;58358;50.936;0.246;2024-03-06T04:32:11;41;37;
64631;PMS5003;58358;50.936;0.246;2024-03-06T04:34:37;43;37;
64631;PMS5003;58358;50.936;0.246;2024-03-06T04:37:02;36;33;
64631;PMS5003;58358;50.936;0.246;2024-03-06T04:39:28;36;31;
64631;PMS5003;58358;50.936;0.246;2024-03-06T04:41:53;32;31;
64631;PMS5003;58358;50.936;0.246;2024-03-06T04:44:18;40;37;
64631;PMS5003;58358;50.936;0.246;2024-03-06T04:46:44;38;35;
64631;PMS5003;58358;50.936;0.246;2024-03-06T04:49:09;39;32;
64631;PMS5003;58358;50.936;0.246;2024-03-06T04:51:35;40;37;
64631;PMS5003;58358;50.936;0.246;2024-03-06T04:54:01;34;32;
64631;PMS5003;58358;50.936;0.246;2024-03-06T04:56:26;33;29;
64631;PMS5003;58358;50.936;0.246;2024-03-06T04:58:52;34;32;
64631;PMS5003;58358;50.936;0.246;2024-03-06T05:01:17;39;33;
64631;PMS5003;58358;50.936;0.246;2024-03-06T05:03:42;31;28;
64631;PMS5003;58358;50.936;0.246;2024-03-06T05:06:09;38;31;
64631;PMS5003;58358;50.936;0.246;2024-03-06T05:08:34;29;26;
64631;PMS5003;58358;50.936;0.246;2024-03-06T05:11:00;41;33;
64631;PMS5003;58358;50.936;0.246;2024-03-06T05:13:25;44;35;
64631;PMS5003;58358;50.936;0.246;2024-03-06T05:15:50;33;32;
64631;PMS5003;58358;50.936;0.246;2024-03-06T05:18:15;41;37;
64631;PMS5003;58358;50.936;0.246;2024-03-06T05:20:40;42;39;
64631;PMS5003;58358;50.936;0.246;2024-03-06T05:23:06;42;36;
64631;PMS5003;58358;50.936;0.246;2024-03-06T05:25:31;38;36;
64631;PMS5003;58358;50.936;0.246;2024-03-06T05:27:57;47;40;
64631;PMS5003;58358;50.936;0.246;2024-03-06T05:30:22;40;38;
64631;PMS5003;58358;50.936;0.246;2024-03-06T05:32:47;43;39;
64631;PMS5003;58358;50.936;0.246;2024-03-06T05:35:13;38;33;
64631;PMS5003;58358;50.936;0.246;2024-03-06T05:37:38;39;33;
64631;PMS5003;58358;50.936;0.246;2024-03-06T05:40:04;39;38;
64631;PMS5003;58358;50.936;0.246;2024-03-06T05:42:29;43;41;
64631;PMS5003;58358;50.936;0.246;2024-03-06T05:44:54;44;37;
64631;PMS5003;58358;50.936;0.246;2024-03-06T05:47:20;38;35;
64631;PMS5003;58358;50.936;0.246;2024-03-06T05:49:46;38;33;
64631;PMS5003;58358;50.936;0.246;2024-03-06T05:52:11;36;34;
64631;PMS5003;58358;50.936;0.246;2024-03-06T05:54:37;38;34;
64631;PMS5003;58358;50.936;0.246;2024-03-06T05:57:02;36;33;
64631;PMS5003;58358;50.936;0.246;2024-03-06T05:59:28;40;33;
64631;PMS5003;58358;50.936;0.246;2024-03-06T06:01:53;37;33;
64631;PMS5003;58358;50.936;0.246;2024-03-06T06:04:19;32;31;
64631;PMS5003;58358;50.936;0.246;2024-03-06T06:06:44;31;27;
64631;PMS5003;58358;50.936;0.246;2024-03-06T06:09:09;26;26;
64631;PMS5003;58358;50.936;0.246;2024-03-06T06:11:34;31;28;
64631;PMS5003;58358;50.936;0.246;2024-03-06T06:14:00;32;24;
64631;PMS5003;58358;50.936;0.246;2024-03-06T06:16:26;32;30;
64631;PMS5003;58358;50.936;0.246;2024-03-06T06:18:51;33;30;
64631;PMS5003;58358;50.936;0.246;2024-03-06T06:21:16;40;36;
64631;PMS5003;58358;50.936;0.246;2024-03-06T06:23:41;33;32;
64631;PMS5003;58358;50.936;0.246;2024-03-06T06:26:07;32;32;
64631;PMS5003;58358;50.936;0.246;2024-03-06T06:28:32;38;36;
64631;PMS5003;58358;50.936;0.246;2024-03-06T06:30:58;40;33;
64631;PMS5003;58358;50.936;0.246;2024-03-06T06:33:24;30;27;
64631;PMS5003;58358;50.936;0.246;2024-03-06T06:35:49;40;33;
64631;PMS5003;58358;50.936;0.246;2024-03-06T06:38:15;42;38;
64631;PMS5003;58358;50.936;0.246;2024-03-06T06:40:40;34;31;
64631;PMS5003;58358;50.936;0.246;2024-03-06T06:43:05;40;37;
64631;PMS5003;58358;50.936;0.246;2024-03-06T06:45:31;39;33;
64631;PMS5003;58358;50.936;0.246;2024-03-06T06:47:56;37;32;
64631;PMS5003;58358;50.936;0.246;2024-03-06T06:50:21;39;33;
64631;PMS5003;58358;50.936;0.246;2024-03-06T06:52:47;40;38;
64631;PMS5003;58358;50.936;0.246;2024-03-06T06:55:13;47;34;
64631;PMS5003;58358;50.936;0.246;2024-03-06T06:57:39;45;39;
64631;PMS5003;58358;50.936;0.246;2024-03-06T07:00:05;42;39;
64631;PMS5003;58358;50.936;0.246;2024-03-06T07:02:30;43;40;
64631;PMS5003;58358;50.936;0.246;2024-03-06T07:04:56;45;39;
64631;PMS5003;58358;50.936;0.246;2024-03-06T07:07:22;46;40;
64631;PMS5003;58358;50.936;0.246;2024-03-06T07:09:47;46;38;
64631;PMS5003;58358;50.936;0.246;2024-03-06T07:12:12;45;37;
64631;PMS5003;58358;50.936;0.246;2024-03-06T07:14:37;34;31;
64631;PMS5003;58358;50.936;0.246;2024-03-06T07:17:02;39;38;
64631;PMS5003;58358;50.936;0.246;2024-03-06T07:19:28;37;31;
64631;PMS5003;58358;50.936;0.246;2024-03-06T07:21:54;41;38;
64631;PMS5003;58358;50.936;0.246;2024-03-06T07:24:20;61;58;
64631;PMS5003;58358;50.936;0.246;2024-03-06T07:26:45;43;36;
64631;PMS5003;58358;50.936;0.246;2024-03-06T07:29:11;38;37;
64631;PMS5003;58358;50.936;0.246;2024-03-06T07:31:36;49;41;
64631;PMS5003;58358;50.936;0.246;2024-03-06T07:34:02;40;35;
64631;PMS5003;58358;50.936;0.246;2024-03-06T07:36:27;46;38;
64631;PMS5003;58358;50.936;0.246;2024-03-06T07:38:53;42;37;
64631;PMS5003;58358;50.936;0.246;2024-03-06T07:41:18;41;35;
64631;PMS5003;58358;50.936;0.246;2024-03-06T07:43:43;42;38;
64631;PMS5003;58358;50.936;0.246;2024-03-06T07:46:09;43;38;
64631;PMS5003;58358;50.936;0.246;2024-03-06T07:48:34;42;37;
64631;PMS5003;58358;50.936;0.246;2024-03-06T07:50:59;44;38;
64631;PMS5003;58358;50.936;0.246;2024-03-06T07:53:24;37;35;
64631;PMS5003;58358;50.936;0.246;2024-03-06T07:55:50;41;35;
64631;PMS5003;58358;50.936;0.246;2024-03-06T07:58:15;41;32;
64631;PMS5003;58358;50.936;0.246;2024-03-06T08:00:40;39;35;
64631;PMS5003;58358;50.936;0.246;2024-03-06T08:03:06;42;38;
64631;PMS5003;58358;50.936;0.246;2024-03-06T08:05:31;42;39;
64631;PMS5003;58358;50.936;0.246;2024-03-06T08:07:57;42;38;
64631;PMS5003;58358;50.936;0.246;2024-03-06T08:10:22;38;33;
64631;PMS5003;58358;50.936;0.246;2024-03-06T08:12:48;42;36;
64631;PMS5003;58358;50.936;0.246;2024-03-06T08:15:13;40;36;
64631;PMS5003;58358;50.936;0.246;2024-03-06T08:17:38;48;46;
64631;PMS5003;58358;50.936;0.246;2024-03-06T08:20:04;45;36;
64631;PMS5003;58358;50.936;0.246;2024-03-06T08:22:29;38;35;
64631;PMS5003;58358;50.936;0.246;2024-03-06T08:24:54;41;33;
64631;PMS5003;58358;50.936;0.246;2024-03-06T08:27:20;44;36;
64631;PMS5003;58358;50.936;0.246;2024-03-06T08:29:45;40;34;
64631;PMS5003;58358;50.936;0.246;2024-03-06T08:32:10;39;37;
64631;PMS5003;58358;50.936;0.246;2024-03-06T08:34:36;38;35;
64631;PMS5003;58358;50.936;0.246;2024-03-06T08:37:01;37;32;
64631;PMS5003;58358;50.936;0.246;2024-03-06T08:39:26;45;37;
64631;PMS5003;58358;50.936;0.246;2024-03-06T08:41:51;47;43;
64631;PMS5003;58358;50.936;0.246;2024-03-06T08:44:17;45;40;
64631;PMS5003;58358;50.936;0.246;2024-03-06T08:46:42;39;35;
64631;PMS5003;58358;50.936;0.246;2024-03-06T08:49:09;38;35;
64631;PMS5003;58358;50.936;0.246;2024-03-06T08:51:34;38;36;
64631;PMS5003;58358;50.936;0.246;2024-03-06T08:53:59;41;34;
64631;PMS5003;58358;50.936;0.246;2024-03-06T08:56:25;42;35;
64631;PMS5003;58358;50.936;0.246;2024-03-06T08:58:50;36;29;
64631;PMS5003;58358;50.936;0.246;2024-03-06T09:01:15;47;38;
64631;PMS5003;58358;50.936;0.246;2024-03-06T09:03:40;42;38;
64631;PMS5003;58358;50.936;0.246;2024-03-06T09:06:06;51;41;
64631;PMS5003;58358;50.936;0.246;2024-03-06T09:08:31;40;33;
64631;PMS5003;58358;50.936;0.246;2024-03-06T09:10:56;39;36;
64631;PMS5003;58358;50.936;0.246;2024-03-06T09:13:22;39;37;
64631;PMS5003;58358;50.936;0.246;2024-03-06T09:15:47;36;31;
64631;PMS5003;58358;50.936;0.246;2024-03-06T09:18:13;46;39;
64631;PMS5003;58358;50.936;0.246;2024-03-06T09:20:38;42;39;
64631;PMS5003;58358;50.936;0.246;2024-03-06T09:23:04;51;45;
64631;PMS5003;58358;50.936;0.246;2024-03-06T09:25:29;43;37;
64631;PMS5003;58358;50.936;0.246;2024-03-06T09:27:54;42;35;
64631;PMS5003;58358;50.936;0.246;2024-03-06T09:30:20;42;38;
64631;PMS5003;58358;50.936;0.246;2024-03-06T09:32:45;46;36;
64631;PMS5003;58358;50.936;0.246;2024-03-06T09:35:10;40;36;
64631;PMS5003;58358;50.936;0.246;2024-03-06T09:37:36;41;36;
64631;PMS5003;58358;50.936;0.246;2024-03-06T09:40:01;44;40;
64631;PMS5003;58358;50.936;0.246;2024-03-06T09:42:26;45;40;
64631;PMS5003;58358;50.936;0.246;2024-03-06T09:44:52;43;37;
64631;PMS5003;58358;50.936;0.246;2024-03-06T09:47:18;40;37;
64631;PMS5003;58358;50.936;0.246;2024-03-06T09:49:43;49;41;
64631;PMS5003;58358;50.936;0.246;2024-03-06T09:52:09;50;42;
64631;PMS5003;58358;50.936;0.246;2024-03-06T09:54:33;56;44;
64631;PMS5003;58358;50.936;0.246;2024-03-06T09:56:59;42;37;
64631;PMS5003;58358;50.936;0.246;2024-03-06T09:59:24;47;39;
64631;PMS5003;58358;50.936;0.246;2024-03-06T10:01:50;43;39;
64631;PMS5003;58358;50.936;0.246;2024-03-06T10:04:19;42;37;
64631;PMS5003;58358;50.936;0.246;2024-03-06T10:06:40;45;38;
64631;PMS5003;58358;50.936;0.246;2024-03-06T10:09:05;42;38;
64631;PMS5003;58358;50.936;0.246;2024-03-06T10:11:31;44;42;
64631;PMS5003;58358;50.936;0.246;2024-03-06T10:13:56;40;35;
64631;PMS5003;58358;50.936;0.246;2024-03-06T10:16:22;41;35;
64631;PMS5003;58358;50.936;0.246;2024-03-06T10:18:47;38;35;
64631;PMS5003;58358;50.936;0.246;2024-03-06T10:21:13;40;33;
64631;PMS5003;58358;50.936;0.246;2024-03-06T10:23:38;38;36;
64631;PMS5003;58358;50.936;0.246;2024-03-06T10:26:06;40;37;
64631;PMS5003;58358;50.936;0.246;2024-03-06T10:28:30;35;33;
64631;PMS5003;58358;50.936;0.246;2024-03-06T10:33:21;38;36;
64631;PMS5003;58358;50.936;0.246;2024-03-06T10:35:46;36;30;
64631;PMS5003;58358;50.936;0.246;2024-03-06T10:38:11;35;34;
64631;PMS5003;58358;50.936;0.246;2024-03-06T10:40:37;30;28;
64631;PMS5003;58358;50.936;0.246;2024-03-06T10:43:02;35;33;
64631;PMS5003;58358;50.936;0.246;2024-03-06T10:45:31;37;34;
64631;PMS5003;58358;50.936;0.246;2024-03-06T10:47:53;36;30;
64631;PMS5003;58358;50.936;0.246;2024-03-06T10:50:18;35;32;
64631;PMS5003;58358;50.936;0.246;2024-03-06T10:52:44;30;29;
64631;PMS5003;58358;50.936;0.246;2024-03-06T10:55:09;29;26;
64631;PMS5003;58358;50.936;0.246;2024-03-06T10:57:35;33;29;
64631;PMS5003;58358;50.936;0.246;2024-03-06T11:00:00;35;32;
64631;PMS5003;58358;50.936;0.246;2024-03-06T11:02:25;30;28;
64631;PMS5003;58358;50.936;0.246;2024-03-06T11:04:51;27;25;
64631;PMS5003;58358;50.936;0.246;2024-03-06T11:07:17;26;23;
64631;PMS5003;58358;50.936;0.246;2024-03-06T11:09:42;31;28;
64631;PMS5003;58358;50.936;0.246;2024-03-06T11:12:07;27;24;
64631;PMS5003;58358;50.936;0.246;2024-03-06T11:14:36;28;27;
64631;PMS5003;58358;50.936;0.246;2024-03-06T11:17:00;25;24;
64631;PMS5003;58358;50.936;0.246;2024-03-06T11:19:24;31;28;
64631;PMS5003;58358;50.936;0.246;2024-03-06T11:21:49;27;25;
64631;PMS5003;58358;50.936;0.246;2024-03-06T11:24:15;27;24;
64631;PMS5003;58358;50.936;0.246;2024-03-06T11:26:41;29;27;
64631;PMS5003;58358;50.936;0.246;2024-03-06T11:29:06;23;19;
64631;PMS5003;58358;50.936;0.246;2024-03-06T11:31:31;27;20;
64631;PMS5003;58358;50.936;0.246;2024-03-06T11:33:56;27;24;
64631;PMS5003;58358;50.936;0.246;2024-03-06T11:36:23;29;26;
64631;PMS5003;58358;50.936;0.246;2024-03-06T11:38:48;28;22;
64631;PMS5003;58358;50.936;0.246;2024-03-06T11:41:12;29;23;
64631;PMS5003;58358;50.936;0.246;2024-03-06T11:43:42;27;21;
64631;PMS5003;58358;50.936;0.246;2024-03-06T11:46:08;19;19;
64631;PMS5003;58358;50.936;0.246;2024-03-06T11:48:28;23;21;
64631;PMS5003;58358;50.936;0.246;2024-03-06T11:50:54;18;16;
64631;PMS5003;58358;50.936;0.246;2024-03-06T11:53:20;20;20;
64631;PMS5003;58358;50.936;0.246;2024-03-06T11:55:45;23;18;
64631;PMS5003;58358;50.936;0.246;2024-03-06T11:58:10;20;20;
64631;PMS5003;58358;50.936;0.246;2024-03-06T12:00:36;28;23;
64631;PMS5003;58358;50.936;0.246;2024-03-06T12:03:02;16;11;
64631;PMS5003;58358;50.936;0.246;2024-03-06T12:05:27;19;18;
64631;PMS5003;58358;50.936;0.246;2024-03-06T12:07:53;19;19;
64631;PMS5003;58358;50.936;0.246;2024-03-06T12:10:18;15;13;
64631;PMS5003;58358;50.936;0.246;2024-03-06T12:12:44;15;15;
64631;PMS5003;58358;50.936;0.246;2024-03-06T12:15:10;13;11;
64631;PMS5003;58358;50.936;0.246;2024-03-06T12:20:00;13;12;
64631;PMS5003;58358;50.936;0.246;2024-03-06T12:22:26;12;12;
64631;PMS5003;58358;50.936;0.246;2024-03-06T12:27:21;13;12;
64631;PMS5003;58358;50.936;0.246;2024-03-06T12:29:42;13;13;
64631;PMS5003;58358;50.936;0.246;2024-03-06T12:34:34;13;13;
64631;PMS5003;58358;50.936;0.246;2024-03-06T12:39:25;14;14;
64631;PMS5003;58358;50.936;0.246;2024-03-06T12:41:51;16;16;
64631;PMS5003;58358;50.936;0.246;2024-03-06T12:44:16;14;13;
64631;PMS5003;58358;50.936;0.246;2024-03-06T12:46:42;13;12;
64631;PMS5003;58358;50.936;0.246;2024-03-06T12:49:07;11;9;
64631;PMS5003;58358;50.936;0.246;2024-03-06T12:51:33;12;12;
64631;PMS5003;58358;50.936;0.246;2024-03-06T12:53:59;9;9;
64631;PMS5003;58358;50.936;0.246;2024-03-06T12:56:24;14;13;
64631;PMS5003;58358;50.936;0.246;2024-03-06T12:58:50;11;11;
64631;PMS5003;58358;50.936;0.246;2024-03-06T13:01:15;15;15;
64631;PMS5003;58358;50.936;0.246;2024-03-06T13:03:40;15;14;
64631;PMS5003;58358;50.936;0.246;2024-03-06T13:06:06;18;16;
64631;PMS5003;58358;50.936;0.246;2024-03-06T13:08:32;13;13;
64631;PMS5003;58358;50.936;0.246;2024-03-06T13:10:57;16;14;
64631;PMS5003;58358;50.936;0.246;2024-03-06T13:13:22;17;16;
64631;PMS5003;58358;50.936;0.246;2024-03-06T13:15:47;19;17;
64631;PMS5003;58358;50.936;0.246;2024-03-06T13:18:13;15;15;
64631;PMS5003;58358;50.936;0.246;2024-03-06T13:20:38;13;13;
64631;PMS5003;58358;50.936;0.246;2024-03-06T13:23:03;15;15;
64631;PMS5003;58358;50.936;0.246;2024-03-06T13:25:28;13;12;
64631;PMS5003;58358;50.936;0.246;2024-03-06T13:27:54;16;15;
64631;PMS5003;58358;50.936;0.246;2024-03-06T13:30:19;18;17;
64631;PMS5003;58358;50.936;0.246;2024-03-06T13:32:45;22;22;
64631;PMS5003;58358;50.936;0.246;2024-03-06T13:35:11;22;19;
64631;PMS5003;58358;50.936;0.246;2024-03-06T13:37:36;19;18;
64631;PMS5003;58358;50.936;0.246;2024-03-06T13:40:01;18;17;
64631;PMS5003;58358;50.936;0.246;2024-03-06T13:42:26;19;16;
64631;PMS5003;58358;50.936;0.246;2024-03-06T13:44:52;18;18;
64631;PMS5003;58358;50.936;0.246;2024-03-06T13:47:17;16;15;
64631;PMS5003;58358;50.936;0.246;2024-03-06T13:49:43;16;15;
64631;PMS5003;58358;50.936;0.246;2024-03-06T13:52:09;16;16;
64631;PMS5003;58358;50.936;0.246;2024-03-06T13:54:34;18;17;
64631;PMS5003;58358;50.936;0.246;2024-03-06T13:57:00;15;12;
64631;PMS5003;58358;50.936;0.246;2024-03-06T13:59:26;21;18;
64631;PMS5003;58358;50.936;0.246;2024-03-06T14:01:51;17;16;
64631;PMS5003;58358;50.936;0.246;2024-03-06T14:04:17;18;17;
64631;PMS5003;58358;50.936;0.246;2024-03-06T14:06:42;18;18;
64631;PMS5003;58358;50.936;0.246;2024-03-06T14:09:08;15;15;
64631;PMS5003;58358;50.936;0.246;2024-03-06T14:11:33;15;15;
64631;PMS5003;58358;50.936;0.246;2024-03-06T14:13:59;17;16;
64631;PMS5003;58358;50.936;0.246;2024-03-06T14:16:24;17;16;
64631;PMS5003;58358;50.936;0.246;2024-03-06T14:18:49;15;15;
64631;PMS5003;58358;50.936;0.246;2024-03-06T14:21:15;21;19;
64631;PMS5003;58358;50.936;0.246;2024-03-06T14:23:40;10;10;
64631;PMS5003;58358;50.936;0.246;2024-03-06T14:26:06;15;15;
64631;PMS5003;58358;50.936;0.246;2024-03-06T14:28:31;11;10;
64631;PMS5003;58358;50.936;0.246;2024-03-06T14:30:57;8;8;
64631;PMS5003;58358;50.936;0.246;2024-03-06T14:33:23;9;8;
64631;PMS5003;58358;50.936;0.246;2024-03-06T14:35:48;9;8;
64631;PMS5003;58358;50.936;0.246;2024-03-06T14:38:14;6;6;
64631;PMS5003;58358;50.936;0.246;2024-03-06T14:40:40;6;6;
64631;PMS5003;58358;50.936;0.246;2024-03-06T14:43:06;11;8;
64631;PMS5003;58358;50.936;0.246;2024-03-06T14:45:31;7;7;
64631;PMS5003;58358;50.936;0.246;2024-03-06T14:47:57;13;10;
64631;PMS5003;58358;50.936;0.246;2024-03-06T14:50:22;8;8;
64631;PMS5003;58358;50.936;0.246;2024-03-06T14:52:48;15;15;
64631;PMS5003;58358;50.936;0.246;2024-03-06T14:55:14;10;8;
64631;PMS5003;58358;50.936;0.246;2024-03-06T14:57:39;8;7;
64631;PMS5003;58358;50.936;0.246;2024-03-06T15:00:05;9;9;
64631;PMS5003;58358;50.936;0.246;2024-03-06T15:02:30;9;8;
64631;PMS5003;58358;50.936;0.246;2024-03-06T15:04:56;10;9;
64631;PMS5003;58358;50.936;0.246;2024-03-06T15:07:22;9;9;
64631;PMS5003;58358;50.936;0.246;2024-03-06T15:09:47;78;78;
64631;PMS5003;58358;50.936;0.246;2024-03-06T15:12:13;11;11;
64631;PMS5003;58358;50.936;0.246;2024-03-06T15:14:38;17;17;
64631;PMS5003;58358;50.936;0.246;2024-03-06T15:17:03;12;11;
64631;PMS5003;58358;50.936;0.246;2024-03-06T15:19:29;10;7;
64631;PMS5003;58358;50.936;0.246;2024-03-06T15:21:55;9;9;
64631;PMS5003;58358;50.936;0.246;2024-03-06T15:24:20;11;11;
64631;PMS5003;58358;50.936;0.246;2024-03-06T15:26:46;16;13;
64631;PMS5003;58358;50.936;0.246;2024-03-06T15:29:12;22;20;
64631;PMS5003;58358;50.936;0.246;2024-03-06T15:31:37;19;17;
64631;PMS5003;58358;50.936;0.246;2024-03-06T15:34:02;21;20;
64631;PMS5003;58358;50.936;0.246;2024-03-06T15:36:29;13;13;
64631;PMS5003;58358;50.936;0.246;2024-03-06T15:38:53;13;11;
64631;PMS5003;58358;50.936;0.246;2024-03-06T15:41:19;12;12;
64631;PMS5003;58358;50.936;0.246;2024-03-06T15:43:45;10;9;
64631;PMS5003;58358;50.936;0.246;2024-03-06T15:46:10;13;13;
64631;PMS5003;58358;50.936;0.246;2024-03-06T15:48:35;12;9;
64631;PMS5003;58358;50.936;0.246;2024-03-06T15:51:01;12;9;
64631;PMS5003;58358;50.936;0.246;2024-03-06T15:53:27;10;10;
64631;PMS5003;58358;50.936;0.246;2024-03-06T15:55:52;7;7;
64631;PMS5003;58358;50.936;0.246;2024-03-06T15:58:18;6;6;
64631;PMS5003;58358;50.936;0.246;2024-03-06T16:00:43;8;8;
64631;PMS5003;58358;50.936;0.246;2024-03-06T16:03:09;8;8;
64631;PMS5003;58358;50.936;0.246;2024-03-06T16:05:34;10;10;
64631;PMS5003;58358;50.936;0.246;2024-03-06T16:08:00;11;11;
64631;PMS5003;58358;50.936;0.246;2024-03-06T16:10:26;13;13;
64631;PMS5003;58358;50.936;0.246;2024-03-06T16:12:51;8;8;
64631;PMS5003;58358;50.936;0.246;2024-03-06T16:15:17;8;7;
64631;PMS5003;58358;50.936;0.246;2024-03-06T16:17:42;9;9;